createdAt,value
2022-09-04T00:00:15.868Z,22.40
2022-09-04T00:02:27.959Z,22.30
2022-09-04T00:04:39.665Z,22.40
2022-09-04T00:06:56.431Z,22.30
2022-09-04T00:09:12.136Z,22.40
2022-09-04T00:11:26.745Z,22.40
2022-09-04T00:13:34.588Z,22.30
2022-09-04T00:15:43.204Z,22.40
2022-09-04T00:17:51.114Z,22.30
2022-09-04T00:19:59.431Z,22.40
2022-09-04T00:22:06.274Z,22.40
2022-09-04T00:24:15.566Z,22.30
2022-09-04T00:26:29.916Z,22.30
2022-09-04T00:28:38.936Z,22.30
2022-09-04T00:30:50.371Z,22.20
2022-09-04T00:33:00.078Z,22.30
2022-09-04T00:35:11.285Z,22.30
2022-09-04T00:37:21.406Z,22.30
2022-09-04T00:39:34.669Z,22.40
2022-09-04T00:41:51.959Z,22.40
2022-09-04T00:44:26.505Z,22.30
2022-09-04T00:46:49.043Z,22.20
2022-09-04T00:49:25.005Z,22.20
2022-09-04T00:51:38.892Z,22.20
2022-09-04T00:53:59.288Z,22.10
2022-09-04T00:56:27.917Z,22.20
2022-09-04T00:58:40.587Z,22.10
2022-09-04T01:00:47.786Z,22.10
2022-09-04T01:03:11.262Z,22.00
2022-09-04T01:05:28.422Z,22.10
2022-09-04T01:07:47.561Z,22.10
2022-09-04T01:10:26.599Z,22.10
2022-09-04T01:12:38.825Z,22.00
2022-09-04T01:14:46.532Z,21.90
2022-09-04T01:17:00.605Z,21.80
2022-09-04T01:19:16.797Z,21.80
2022-09-04T01:21:56.862Z,21.80
2022-09-04T01:24:26.390Z,21.80
2022-09-04T01:26:41.124Z,21.70
2022-09-04T01:28:53.559Z,21.70
2022-09-04T01:31:03.238Z,21.70
2022-09-04T01:33:13.787Z,21.70
2022-09-04T01:35:25.725Z,21.70
2022-09-04T01:37:42.232Z,21.70
2022-09-04T01:39:49.833Z,21.70
2022-09-04T01:41:59.690Z,21.70
2022-09-04T01:44:05.901Z,21.60
2022-09-04T01:46:23.282Z,21.60
2022-09-04T01:48:37.598Z,21.60
2022-09-04T01:50:44.995Z,21.60
2022-09-04T01:52:55.854Z,21.50
2022-09-04T01:55:09.346Z,21.50
2022-09-04T01:57:25.091Z,21.50
2022-09-04T01:59:33.588Z,21.50
2022-09-04T02:01:42.523Z,21.40
2022-09-04T02:03:54.166Z,21.40
2022-09-04T02:06:06.121Z,21.40
2022-09-04T02:08:25.139Z,21.30
2022-09-04T02:10:34.476Z,21.30
2022-09-04T02:12:51.026Z,21.30
2022-09-04T02:15:04.227Z,21.30
2022-09-04T02:17:14.387Z,21.30
2022-09-04T02:19:30.039Z,21.20
2022-09-04T02:21:37.295Z,21.10
2022-09-04T02:23:48.819Z,21.20
2022-09-04T02:25:58.106Z,21.10
2022-09-04T02:28:19.517Z,21.00
2022-09-04T02:30:22.676Z,21.00
2022-09-04T02:32:32.330Z,21.00
2022-09-04T02:34:43.775Z,21.00
2022-09-04T02:36:54.328Z,21.00
2022-09-04T02:39:03.862Z,21.00
2022-09-04T02:41:15.621Z,21.00
2022-09-04T02:43:39.571Z,21.00
2022-09-04T02:45:49.487Z,21.00
2022-09-04T02:48:00.132Z,20.80
2022-09-04T02:50:13.427Z,20.80
2022-09-04T02:52:33.549Z,20.70
2022-09-04T02:54:50.222Z,20.70
2022-09-04T02:57:01.758Z,20.60
2022-09-04T02:59:28.873Z,20.70
2022-09-04T03:01:38.499Z,20.60
2022-09-04T03:03:47.964Z,20.50
2022-09-04T03:05:54.063Z,20.50
2022-09-04T03:08:02.493Z,20.40
2022-09-04T03:10:12.773Z,20.50
2022-09-04T03:12:30.749Z,20.50
2022-09-04T03:14:41.250Z,20.40
2022-09-04T03:16:52.681Z,20.30
2022-09-04T03:19:05.069Z,20.20
2022-09-04T03:21:16.563Z,20.20
2022-09-04T03:23:22.224Z,20.10
2022-09-04T03:25:52.979Z,20.10
2022-09-04T03:27:55.780Z,20.00
2022-09-04T03:30:05.014Z,20.00
2022-09-04T03:32:16.947Z,19.90
2022-09-04T03:34:29.452Z,19.90
2022-09-04T03:36:41.167Z,19.90
2022-09-04T03:38:52.926Z,19.80
2022-09-04T03:41:06.288Z,19.90
2022-09-04T03:43:31.646Z,19.90
2022-09-04T03:45:47.363Z,19.80
2022-09-04T03:48:06.354Z,19.70
2022-09-04T03:50:22.083Z,19.70
2022-09-04T03:52:35.479Z,19.60
2022-09-04T03:55:03.523Z,19.60
2022-09-04T03:57:23.042Z,19.50
2022-09-04T03:59:40.023Z,19.50
2022-09-04T04:01:51.990Z,19.60
2022-09-04T04:04:21.887Z,19.40
2022-09-04T04:06:34.174Z,19.30
2022-09-04T04:09:10.433Z,19.30
2022-09-04T04:11:26.475Z,19.40
2022-09-04T04:13:56.188Z,19.40
2022-09-04T04:16:12.561Z,19.30
2022-09-04T04:18:42.511Z,19.30
2022-09-04T04:20:56.101Z,19.20
2022-09-04T04:23:17.811Z,19.20
2022-09-04T04:25:52.261Z,19.20
2022-09-04T04:28:13.033Z,19.20
2022-09-04T04:30:18.249Z,19.10
2022-09-04T04:32:43.946Z,19.10
2022-09-04T04:35:03.574Z,19.10
2022-09-04T04:37:13.468Z,19.10
2022-09-04T04:39:25.770Z,19.00
2022-09-04T04:42:07.883Z,19.00
2022-09-04T04:44:16.143Z,19.10
2022-09-04T04:46:29.052Z,19.10
2022-09-04T04:48:54.935Z,19.00
2022-09-04T04:51:08.994Z,19.00
2022-09-04T04:53:20.236Z,19.10
2022-09-04T04:55:38.679Z,19.10
2022-09-04T04:58:16.345Z,19.10
2022-09-04T05:00:27.464Z,19.10
2022-09-04T05:02:35.625Z,19.20
2022-09-04T05:04:46.164Z,19.20
2022-09-04T05:06:55.827Z,19.20
2022-09-04T05:09:08.788Z,19.10
2022-09-04T05:11:19.593Z,19.10
2022-09-04T05:13:31.016Z,19.10
2022-09-04T05:15:53.187Z,19.20
2022-09-04T05:18:08.357Z,19.20
2022-09-04T05:20:29.386Z,19.20
2022-09-04T05:22:39.833Z,19.20
2022-09-04T05:24:54.144Z,19.20
2022-09-04T05:27:07.283Z,19.10
2022-09-04T05:29:19.644Z,19.20
2022-09-04T05:31:31.804Z,19.20
2022-09-04T05:33:40.515Z,19.30
2022-09-04T05:35:50.108Z,19.20
2022-09-04T05:38:03.300Z,19.30
2022-09-04T05:40:13.885Z,19.30
2022-09-04T05:42:48.127Z,19.40
2022-09-04T05:44:59.530Z,19.40
2022-09-04T05:47:12.483Z,19.50
2022-09-04T05:49:26.754Z,19.50
2022-09-04T05:51:46.258Z,19.50
2022-09-04T05:54:13.621Z,19.50
2022-09-04T05:56:46.634Z,19.60
2022-09-04T05:59:16.050Z,19.70
2022-09-04T06:01:52.246Z,19.70
2022-09-04T06:04:31.007Z,19.70
2022-09-04T06:06:40.800Z,19.90
2022-09-04T06:08:58.175Z,19.90
2022-09-04T06:11:21.817Z,19.90
2022-09-04T06:13:42.117Z,20.00
2022-09-04T06:15:57.457Z,20.00
2022-09-04T06:18:16.402Z,20.10
2022-09-04T06:20:40.756Z,20.10
2022-09-04T06:23:03.107Z,20.20
2022-09-04T06:25:34.019Z,20.30
2022-09-04T06:27:52.673Z,20.30
2022-09-04T06:30:06.408Z,20.40
2022-09-04T06:32:41.772Z,20.40
2022-09-04T06:35:14.402Z,20.50
2022-09-04T06:37:26.051Z,20.60
2022-09-04T06:39:50.840Z,20.70
2022-09-04T06:42:07.471Z,20.80
2022-09-04T06:44:25.043Z,20.90
2022-09-04T06:46:38.852Z,21.00
2022-09-04T06:48:53.174Z,21.10
2022-09-04T06:51:08.836Z,21.20
2022-09-04T06:53:21.306Z,21.30
2022-09-04T06:55:33.872Z,21.40
2022-09-04T06:57:54.091Z,21.40
2022-09-04T07:00:07.981Z,21.40
2022-09-04T07:02:22.796Z,21.50
2022-09-04T07:04:37.545Z,21.50
2022-09-04T07:06:52.454Z,21.60
2022-09-04T07:09:05.428Z,21.60
2022-09-04T07:11:20.054Z,21.60
2022-09-04T07:13:40.394Z,21.60
2022-09-04T07:16:18.235Z,21.70
2022-09-04T07:18:35.003Z,21.80
2022-09-04T07:20:47.120Z,21.90
2022-09-04T07:23:12.300Z,21.90
2022-09-04T07:25:20.216Z,22.10
2022-09-04T07:27:36.336Z,22.10
2022-09-04T07:29:46.082Z,22.20
2022-09-04T07:32:00.008Z,22.30
2022-09-04T07:34:11.728Z,22.40
2022-09-04T07:36:18.878Z,22.50
2022-09-04T07:38:35.590Z,22.60
2022-09-04T07:40:43.753Z,22.70
2022-09-04T07:42:57.432Z,22.70
2022-09-04T07:45:06.015Z,22.90
2022-09-04T07:47:19.533Z,23.00
2022-09-04T07:49:32.595Z,23.10
2022-09-04T07:51:40.981Z,23.20
2022-09-04T07:54:11.507Z,23.30
2022-09-04T07:56:36.150Z,23.40
2022-09-04T07:59:00.329Z,23.40
2022-09-04T08:01:26.802Z,23.50
2022-09-04T08:03:54.322Z,23.60
2022-09-04T08:06:04.424Z,23.70
2022-09-04T08:08:54.402Z,23.80
2022-09-04T08:11:38.175Z,23.90
2022-09-04T08:14:05.051Z,23.90
2022-09-04T08:16:09.549Z,24.00
2022-09-04T08:18:35.477Z,24.10
2022-09-04T08:20:52.767Z,24.20
2022-09-04T08:23:04.117Z,24.30
2022-09-04T08:25:17.971Z,24.40
2022-09-04T08:27:36.029Z,24.50
2022-09-04T08:30:00.505Z,24.50
2022-09-04T08:32:18.101Z,24.60
2022-09-04T08:34:46.795Z,24.70
2022-09-04T08:37:02.602Z,24.80
2022-09-04T08:39:10.559Z,24.90
2022-09-04T08:42:01.508Z,25.10
2022-09-04T08:44:41.538Z,25.10
2022-09-04T08:47:17.769Z,25.30
2022-09-04T08:49:59.722Z,25.20
2022-09-04T08:52:32.487Z,25.20
2022-09-04T08:55:07.323Z,25.20
2022-09-04T08:57:36.782Z,25.30
2022-09-04T09:00:07.113Z,25.40
2022-09-04T09:02:43.447Z,25.50
2022-09-04T09:05:29.273Z,25.60
2022-09-04T09:08:01.166Z,25.70
2022-09-04T09:10:36.729Z,25.80
2022-09-04T09:13:09.284Z,25.90
2022-09-04T09:15:37.263Z,26.10
2022-09-04T09:17:53.900Z,26.20
2022-09-04T09:20:01.248Z,26.30
2022-09-04T09:22:12.436Z,26.30
2022-09-04T09:24:53.872Z,26.30
2022-09-04T09:27:16.027Z,26.40
2022-09-04T09:29:44.002Z,26.50
2022-09-04T09:32:28.871Z,26.70
2022-09-04T09:35:16.734Z,26.70
2022-09-04T09:37:34.967Z,26.70
2022-09-04T09:40:10.485Z,26.80
2022-09-04T09:42:39.959Z,26.80
2022-09-04T09:45:06.280Z,26.90
2022-09-04T09:47:48.577Z,26.90
2022-09-04T09:50:13.296Z,26.90
2022-09-04T09:52:49.416Z,27.10
2022-09-04T09:55:25.267Z,27.20
2022-09-04T09:57:56.052Z,27.30
2022-09-04T10:00:09.507Z,27.40
2022-09-04T10:03:00.425Z,27.40
2022-09-04T10:05:37.521Z,27.60
2022-09-04T10:08:15.199Z,27.70
2022-09-04T10:10:58.071Z,27.70
2022-09-04T10:13:34.830Z,27.80
2022-09-04T10:15:55.005Z,27.90
2022-09-04T10:18:26.542Z,28.00
2022-09-04T10:20:55.426Z,28.10
2022-09-04T10:23:29.393Z,28.20
2022-09-04T10:25:58.934Z,28.40
2022-09-04T10:28:33.021Z,28.50
2022-09-04T10:30:54.610Z,28.50
2022-09-04T10:33:22.263Z,28.50
2022-09-04T10:35:28.432Z,28.60
2022-09-04T10:37:54.354Z,28.70
2022-09-04T10:40:28.755Z,28.80
2022-09-04T10:42:46.115Z,28.90
2022-09-04T10:45:11.859Z,28.90
2022-09-04T10:47:28.947Z,28.90
2022-09-04T10:49:47.686Z,29.00
2022-09-04T10:52:14.257Z,29.10
2022-09-04T10:54:50.853Z,29.10
2022-09-04T10:57:05.667Z,29.20
2022-09-04T10:59:37.893Z,29.30
2022-09-04T11:02:03.630Z,29.50
2022-09-04T11:04:46.230Z,29.50
2022-09-04T11:07:18.818Z,29.40
2022-09-04T11:09:40.290Z,29.10
2022-09-04T11:12:09.373Z,28.90
2022-09-04T11:14:34.673Z,28.90
2022-09-04T11:17:09.360Z,29.00
2022-09-04T11:19:43.367Z,29.00
2022-09-04T11:22:23.179Z,29.20
2022-09-04T11:25:01.806Z,29.50
2022-09-04T11:27:50.059Z,29.70
2022-09-04T11:30:03.515Z,29.90
2022-09-04T11:32:26.229Z,30.00
2022-09-04T11:35:07.720Z,30.10
2022-09-04T11:37:36.616Z,30.10
2022-09-04T11:40:11.019Z,30.00
2022-09-04T11:42:32.960Z,29.90
2022-09-04T11:45:03.750Z,29.80
2022-09-04T11:47:37.585Z,29.80
2022-09-04T11:50:05.669Z,29.80
2022-09-04T11:52:28.491Z,30.00
2022-09-04T11:55:09.551Z,30.10
2022-09-04T11:57:23.999Z,30.00
2022-09-04T11:59:44.716Z,29.90
2022-09-04T12:02:18.923Z,29.70
2022-09-04T12:04:43.887Z,29.70
2022-09-04T12:07:02.468Z,29.60
2022-09-04T12:09:36.582Z,29.70
2022-09-04T12:12:05.870Z,29.90
2022-09-04T12:14:23.962Z,30.00
2022-09-04T12:16:55.777Z,30.30
2022-09-04T12:21:41.025Z,30.60
2022-09-04T12:24:15.184Z,30.60
2022-09-04T12:26:59.734Z,30.50
2022-09-04T12:29:50.370Z,30.50
2022-09-04T12:32:15.276Z,30.50
2022-09-04T12:34:41.315Z,30.50
2022-09-04T12:37:12.369Z,30.70
2022-09-04T12:39:50.263Z,30.80
2022-09-04T12:42:02.170Z,30.90
2022-09-04T12:44:13.626Z,30.90
2022-09-04T12:46:30.950Z,30.80
2022-09-04T12:48:41.882Z,30.80
2022-09-04T12:50:51.491Z,30.80
2022-09-04T12:53:49.278Z,31.00
2022-09-04T12:56:05.727Z,31.00
2022-09-04T12:58:21.262Z,31.20
2022-09-04T13:00:40.789Z,31.40
2022-09-04T13:03:01.192Z,31.50
2022-09-04T13:05:27.295Z,31.70
2022-09-04T13:07:41.472Z,31.70
2022-09-04T13:09:55.953Z,31.80
2022-09-04T13:12:09.757Z,31.70
2022-09-04T13:14:31.947Z,31.80
2022-09-04T13:16:42.502Z,31.90
2022-09-04T13:18:58.732Z,32.00
2022-09-04T13:21:12.571Z,32.00
2022-09-04T13:23:28.585Z,32.00
2022-09-04T13:25:53.277Z,31.90
2022-09-04T13:28:06.781Z,31.90
2022-09-04T13:30:15.325Z,31.80
2022-09-04T13:32:36.952Z,31.70
2022-09-04T13:34:54.189Z,31.50
2022-09-04T13:37:06.927Z,31.30
2022-09-04T13:39:40.468Z,31.30
2022-09-04T13:42:24.907Z,31.30
2022-09-04T13:45:00.431Z,31.30
2022-09-04T13:47:09.050Z,31.10
2022-09-04T13:49:16.868Z,31.10
2022-09-04T13:51:25.031Z,31.10
2022-09-04T13:53:33.519Z,31.00
2022-09-04T13:55:39.707Z,31.00
2022-09-04T13:57:47.920Z,30.90
2022-09-04T13:59:53.420Z,30.80
2022-09-04T14:02:00.038Z,30.80
2022-09-04T14:04:08.564Z,30.80
2022-09-04T14:06:15.440Z,30.80
2022-09-04T14:08:18.833Z,30.90
2022-09-04T14:10:30.122Z,30.90
2022-09-04T14:12:53.797Z,31.00
2022-09-04T14:15:28.605Z,31.10
2022-09-04T14:17:39.379Z,31.10
2022-09-04T14:19:53.915Z,31.10
2022-09-04T14:22:24.018Z,31.10
2022-09-04T14:27:09.224Z,31.20
2022-09-04T14:29:23.832Z,31.30
2022-09-04T14:31:35.176Z,31.30
2022-09-04T14:32:06.751Z,31.10
2022-09-04T14:33:53.539Z,31.30
2022-09-04T14:36:06.655Z,31.30
2022-09-04T14:38:42.982Z,31.30
2022-09-04T14:40:56.653Z,31.40
2022-09-04T14:43:10.407Z,31.30
2022-09-04T14:45:24.491Z,31.40
2022-09-04T14:47:38.015Z,31.30
2022-09-04T14:49:47.324Z,31.30
2022-09-04T14:51:56.569Z,31.40
2022-09-04T14:53:59.979Z,31.40
2022-09-04T14:56:29.877Z,31.30
2022-09-04T14:58:36.818Z,31.20
2022-09-04T15:00:59.404Z,31.20
2022-09-04T15:03:08.736Z,31.20
2022-09-04T15:05:21.553Z,31.10
2022-09-04T15:07:35.248Z,31.00
2022-09-04T15:09:42.001Z,31.10
2022-09-04T15:11:45.414Z,31.10
2022-09-04T15:13:53.875Z,31.00
2022-09-04T15:16:06.766Z,31.00
2022-09-04T15:18:15.870Z,31.00
2022-09-04T15:20:23.437Z,31.00
2022-09-04T15:22:35.010Z,31.00
2022-09-04T15:24:48.912Z,31.00
2022-09-04T15:26:56.999Z,30.90
2022-09-04T15:29:08.122Z,30.90
2022-09-04T15:31:17.754Z,31.00
2022-09-04T15:33:22.353Z,30.90
2022-09-04T15:35:32.799Z,30.90
2022-09-04T15:37:36.784Z,30.80
2022-09-04T15:39:45.439Z,30.70
2022-09-04T15:41:50.802Z,30.60
2022-09-04T15:43:59.335Z,30.60
2022-09-04T15:46:07.473Z,30.60
2022-09-04T15:48:21.010Z,30.70
2022-09-04T15:50:27.479Z,30.70
2022-09-04T15:52:40.241Z,30.70
2022-09-04T15:55:22.172Z,30.60
2022-09-04T15:57:36.039Z,30.60
2022-09-04T15:59:49.686Z,30.60
2022-09-04T16:02:03.118Z,30.60
2022-09-04T16:04:17.158Z,30.50
2022-09-04T16:06:25.414Z,30.50
2022-09-04T16:08:33.499Z,30.50
2022-09-04T16:10:54.282Z,30.50
2022-09-04T16:13:02.177Z,30.40
2022-09-04T16:15:11.578Z,30.30
2022-09-04T16:17:21.217Z,30.20
2022-09-04T16:19:33.557Z,30.20
2022-09-04T16:21:45.364Z,30.20
2022-09-04T16:23:49.454Z,30.10
2022-09-04T16:25:53.057Z,30.10
2022-09-04T16:28:02.329Z,30.10
2022-09-04T16:30:06.703Z,30.10
2022-09-04T16:32:13.271Z,30.20
2022-09-04T16:34:28.492Z,30.20
2022-09-04T16:36:40.128Z,30.20
2022-09-04T16:38:47.772Z,30.20
2022-09-04T16:40:56.701Z,30.20
2022-09-04T16:43:09.648Z,30.20
2022-09-04T16:45:18.284Z,30.20
2022-09-04T16:47:27.242Z,30.20
2022-09-04T16:49:39.965Z,30.20
2022-09-04T16:51:47.630Z,30.10
2022-09-04T16:53:53.711Z,30.00
2022-09-04T16:55:59.996Z,30.00
2022-09-04T16:58:20.444Z,30.00
2022-09-04T17:00:52.568Z,30.00
2022-09-04T17:03:00.042Z,30.10
2022-09-04T17:05:28.345Z,30.10
2022-09-04T17:07:37.409Z,30.00
2022-09-04T17:10:01.761Z,30.00
2022-09-04T17:12:19.880Z,30.00
2022-09-04T17:14:31.704Z,29.90
2022-09-04T17:16:40.269Z,29.90
2022-09-04T17:18:48.375Z,29.80
2022-09-04T17:22:54.151Z,29.80
2022-09-04T17:28:57.471Z,29.70
2022-09-04T17:29:14.374Z,29.70
2022-09-04T17:29:15.231Z,29.60
2022-09-04T17:31:13.531Z,29.60
2022-09-04T17:37:07.837Z,29.50
2022-09-04T17:40:46.391Z,29.50
2022-09-04T17:41:31.052Z,29.40
2022-09-04T17:41:31.321Z,29.50
2022-09-04T17:44:01.938Z,29.40
2022-09-04T17:46:27.548Z,29.40
2022-09-04T17:48:33.540Z,29.30
2022-09-04T17:50:38.333Z,29.20
2022-09-04T17:52:59.639Z,29.20
2022-09-04T17:55:07.033Z,29.10
2022-09-04T17:57:16.377Z,29.00
2022-09-04T17:59:25.037Z,29.00
2022-09-04T18:01:33.893Z,29.00
2022-09-04T18:04:02.782Z,28.90
2022-09-04T18:06:13.699Z,28.80
2022-09-04T18:08:21.676Z,28.80
2022-09-04T18:10:31.412Z,28.80
2022-09-04T18:12:40.634Z,28.70
2022-09-04T18:15:13.352Z,28.70
2022-09-04T18:17:22.804Z,28.60
2022-09-04T18:19:32.588Z,28.60
2022-09-04T18:21:44.948Z,28.50
2022-09-04T18:23:55.651Z,28.50
2022-09-04T18:26:05.781Z,28.40
2022-09-04T18:28:15.082Z,28.40
2022-09-04T18:37:07.082Z,28.30
2022-09-04T18:37:07.985Z,28.30
2022-09-04T18:37:19.447Z,28.20
2022-09-04T18:37:47.894Z,28.20
2022-09-04T18:40:12.685Z,28.10
2022-09-04T18:47:11.590Z,28.10
2022-09-04T18:50:25.015Z,28.00
2022-09-04T18:50:30.654Z,27.80
2022-09-04T18:50:36.801Z,27.90
2022-09-04T18:52:30.341Z,27.70
2022-09-04T18:54:40.615Z,27.60
2022-09-04T18:56:47.882Z,27.50
2022-09-04T18:59:01.089Z,27.50
2022-09-04T19:01:11.237Z,27.50
2022-09-04T19:03:19.143Z,27.40
2022-09-04T19:05:24.167Z,27.40
2022-09-04T19:07:32.461Z,27.30
2022-09-04T19:09:55.878Z,27.30
2022-09-04T19:12:05.047Z,27.30
2022-09-04T19:14:15.329Z,27.20
2022-09-04T19:16:23.988Z,27.20
2022-09-04T19:18:34.460Z,27.10
2022-09-04T19:20:47.469Z,27.10
2022-09-04T19:22:54.808Z,27.00
2022-09-04T19:25:04.784Z,27.00
2022-09-04T19:27:27.291Z,26.90
2022-09-04T19:29:41.488Z,26.90
2022-09-04T19:31:53.030Z,26.80
2022-09-04T19:34:00.672Z,26.70
2022-09-04T19:36:09.212Z,26.70
2022-09-04T19:45:39.685Z,26.60
2022-09-04T19:45:54.953Z,26.50
2022-09-04T19:46:11.162Z,26.40
2022-09-04T19:46:25.690Z,26.40
2022-09-04T19:48:40.007Z,26.30
2022-09-04T19:53:34.342Z,26.20
2022-09-04T19:53:45.053Z,26.10
2022-09-04T19:55:56.268Z,26.10
2022-09-04T19:58:06.819Z,26.00
2022-09-04T20:00:33.674Z,26.00
2022-09-04T20:02:50.147Z,25.90
2022-09-04T20:04:56.537Z,25.90
2022-09-04T20:07:02.740Z,25.80
2022-09-04T20:09:13.653Z,25.80
2022-09-04T20:11:32.481Z,25.80
2022-09-04T20:13:43.433Z,25.70
2022-09-04T20:15:56.754Z,25.70
2022-09-04T20:18:10.029Z,25.70
2022-09-04T20:20:19.032Z,25.70
2022-09-04T20:22:33.914Z,25.70
2022-09-04T20:24:59.133Z,25.60
2022-09-04T20:27:15.675Z,25.60
2022-09-04T20:29:23.801Z,25.60
2022-09-04T20:31:37.056Z,25.60
2022-09-04T20:33:43.075Z,25.60
2022-09-04T20:35:50.542Z,25.50
2022-09-04T20:37:55.683Z,25.50
2022-09-04T20:40:07.563Z,25.50
2022-09-04T20:42:20.761Z,25.40
2022-09-04T20:44:29.337Z,25.40
2022-09-04T20:52:45.637Z,25.40
2022-09-04T20:52:55.063Z,25.30
2022-09-04T20:53:05.571Z,25.20
2022-09-04T20:54:12.075Z,25.30
2022-09-04T20:57:36.015Z,25.30
2022-09-04T21:03:18.415Z,25.20
2022-09-04T21:03:22.695Z,25.10
2022-09-04T21:04:41.802Z,25.10
2022-09-04T21:06:52.074Z,25.10
2022-09-04T21:09:04.004Z,25.10
2022-09-04T21:11:19.149Z,25.10
2022-09-04T21:13:39.272Z,25.10
2022-09-04T21:15:52.940Z,25.10
2022-09-04T21:18:20.250Z,25.10
2022-09-04T21:21:00.318Z,25.10
2022-09-04T21:23:25.741Z,25.10
2022-09-04T21:25:31.790Z,25.10
2022-09-04T21:28:05.544Z,25.10
2022-09-04T21:30:10.930Z,25.10
2022-09-04T21:32:30.636Z,25.10
2022-09-04T21:35:03.945Z,25.00
2022-09-04T21:37:17.224Z,25.00
2022-09-04T21:39:40.216Z,25.00
2022-09-04T21:41:55.373Z,25.00
2022-09-04T21:44:15.581Z,25.00
2022-09-04T21:46:52.800Z,25.00
2022-09-04T21:49:08.254Z,25.00
2022-09-04T21:51:33.285Z,25.00
2022-09-04T21:54:34.672Z,24.90
2022-09-04T22:02:29.569Z,24.90
2022-09-04T22:02:38.447Z,24.80
2022-09-04T22:02:51.314Z,24.80
2022-09-04T22:05:00.669Z,24.80
2022-09-04T22:10:25.089Z,24.80
2022-09-04T22:13:33.143Z,24.80
2022-09-04T22:13:39.072Z,24.80
2022-09-04T22:15:03.754Z,24.80
2022-09-04T22:17:15.599Z,24.80
2022-09-04T22:19:46.765Z,24.80
2022-09-04T22:22:09.451Z,24.80
2022-09-04T22:24:46.279Z,24.70
2022-09-04T22:27:25.895Z,24.70
2022-09-04T22:29:47.645Z,24.70
2022-09-04T22:32:20.092Z,24.60
2022-09-04T22:35:02.406Z,24.60
2022-09-04T22:37:44.059Z,24.60
2022-09-04T22:40:12.559Z,24.50
2022-09-04T22:42:48.000Z,24.50
2022-09-04T22:45:14.610Z,24.50
2022-09-04T22:47:33.529Z,24.50
2022-09-04T22:49:53.470Z,24.50
2022-09-04T22:52:18.697Z,24.50
2022-09-04T22:54:38.450Z,24.50
2022-09-04T22:56:54.146Z,24.40
2022-09-04T22:59:26.576Z,24.40
2022-09-04T23:01:52.102Z,24.40
2022-09-04T23:04:15.569Z,24.30
2022-09-04T23:09:42.906Z,24.30
2022-09-04T23:13:46.784Z,24.30
2022-09-04T23:13:49.924Z,24.30
2022-09-04T23:15:09.779Z,24.20
2022-09-04T23:17:28.108Z,24.30
2022-09-04T23:26:31.252Z,24.30
2022-09-04T23:26:42.066Z,24.20
2022-09-04T23:26:43.057Z,24.30
2022-09-04T23:27:44.529Z,24.20
2022-09-04T23:30:10.349Z,24.20
2022-09-04T23:32:34.542Z,24.20
2022-09-04T23:34:57.760Z,24.10
2022-09-04T23:37:41.347Z,24.10
2022-09-04T23:40:04.717Z,24.10
2022-09-04T23:42:25.456Z,24.10
2022-09-04T23:44:46.706Z,24.10
2022-09-04T23:47:22.410Z,24.10
2022-09-04T23:49:51.931Z,24.10
2022-09-04T23:52:03.137Z,24.10
2022-09-04T23:54:34.272Z,24.10
2022-09-04T23:56:44.392Z,24.10
2022-09-04T23:59:26.275Z,24.10
